createdAt,value
2017-09-06T00:00:18.472Z,17.70
2017-09-06T00:03:24.087Z,17.70
2017-09-06T00:06:29.751Z,17.60
2017-09-06T00:09:34.666Z,17.60
2017-09-06T00:12:40.004Z,17.60
2017-09-06T00:15:47.608Z,17.60
2017-09-06T00:18:54.052Z,17.70
2017-09-06T00:21:59.975Z,17.70
2017-09-06T00:25:05.433Z,17.90
2017-09-06T00:28:10.940Z,17.80
2017-09-06T00:31:15.921Z,17.80
2017-09-06T00:34:21.508Z,17.70
2017-09-06T00:37:26.955Z,17.70
2017-09-06T00:40:33.168Z,17.70
2017-09-06T00:43:41.412Z,17.80
2017-09-06T00:46:46.848Z,17.80
2017-09-06T00:49:52.075Z,17.80
2017-09-06T00:52:57.221Z,17.70
2017-09-06T00:56:03.685Z,17.70
2017-09-06T00:59:08.932Z,17.70
2017-09-06T01:02:14.719Z,17.70
2017-09-06T01:05:20.224Z,17.70
2017-09-06T01:08:25.331Z,17.80
2017-09-06T01:11:31.872Z,17.80
2017-09-06T01:14:37.074Z,17.80
2017-09-06T01:17:42.428Z,17.80
2017-09-06T01:20:47.927Z,17.90
2017-09-06T01:23:53.151Z,17.90
2017-09-06T01:26:58.527Z,17.90
2017-09-06T01:30:07.003Z,17.90
2017-09-06T01:33:12.033Z,18.00
2017-09-06T01:36:16.954Z,17.90
2017-09-06T01:39:22.187Z,17.90
2017-09-06T01:42:27.496Z,17.90
2017-09-06T01:45:32.948Z,17.90
2017-09-06T01:48:37.963Z,18.00
2017-09-06T01:51:43.691Z,18.00
2017-09-06T01:54:49.455Z,18.10
2017-09-06T01:57:54.765Z,18.10
2017-09-06T02:01:00.107Z,18.10
2017-09-06T02:04:05.727Z,18.20
2017-09-06T02:07:10.840Z,18.10
2017-09-06T02:10:15.535Z,18.10
2017-09-06T02:13:20.748Z,18.10
2017-09-06T02:16:25.779Z,18.10
2017-09-06T02:19:31.549Z,18.10
2017-09-06T02:22:36.319Z,18.10
2017-09-06T02:25:41.380Z,18.00
2017-09-06T02:28:47.735Z,18.00
2017-09-06T02:31:52.609Z,17.90
2017-09-06T02:34:58.276Z,17.90
2017-09-06T02:38:03.604Z,17.80
2017-09-06T02:41:09.127Z,17.70
2017-09-06T02:44:15.692Z,17.50
2017-09-06T02:47:20.891Z,17.50
2017-09-06T02:50:26.549Z,17.40
2017-09-06T02:53:31.508Z,17.40
2017-09-06T02:56:37.091Z,17.40
2017-09-06T02:59:42.299Z,17.40
2017-09-06T03:02:47.487Z,17.40
2017-09-06T03:05:53.490Z,17.40
2017-09-06T03:08:58.712Z,17.40
2017-09-06T03:12:03.496Z,17.40
2017-09-06T03:15:08.913Z,17.50
2017-09-06T03:18:14.025Z,17.40
2017-09-06T03:21:19.439Z,17.40
2017-09-06T03:24:24.619Z,17.40
2017-09-06T03:27:30.286Z,17.40
2017-09-06T03:30:35.682Z,17.40
2017-09-06T03:33:40.950Z,17.40
2017-09-06T03:36:46.287Z,17.50
2017-09-06T03:39:51.644Z,17.50
2017-09-06T03:42:56.659Z,17.50
2017-09-06T03:46:02.255Z,17.50
2017-09-06T03:49:07.336Z,17.40
2017-09-06T03:52:12.908Z,17.40
2017-09-06T03:55:21.212Z,17.40
2017-09-06T03:58:27.007Z,17.40
2017-09-06T04:01:32.635Z,17.40
2017-09-06T04:04:37.774Z,17.40
2017-09-06T04:07:42.655Z,17.40
2017-09-06T04:10:49.079Z,17.40
2017-09-06T04:13:54.592Z,17.30
2017-09-06T04:16:59.884Z,17.20
2017-09-06T04:20:06.715Z,17.00
2017-09-06T04:23:11.631Z,16.90
2017-09-06T04:26:16.955Z,17.00
2017-09-06T04:29:22.320Z,16.90
2017-09-06T04:32:27.937Z,16.90
2017-09-06T04:35:33.192Z,16.80
2017-09-06T04:38:38.982Z,16.90
2017-09-06T04:41:44.417Z,17.10
2017-09-06T04:44:51.925Z,17.20
2017-09-06T04:47:57.364Z,17.20
2017-09-06T04:51:03.573Z,17.30
2017-09-06T04:54:08.636Z,17.30
2017-09-06T04:57:14.632Z,17.30
2017-09-06T05:00:21.139Z,17.20
2017-09-06T05:03:27.311Z,17.10
2017-09-06T05:06:32.235Z,17.10
2017-09-06T05:09:37.516Z,17.00
2017-09-06T05:12:45.076Z,17.00
2017-09-06T05:15:50.100Z,17.00
2017-09-06T05:18:54.936Z,17.00
2017-09-06T05:21:59.777Z,16.90
2017-09-06T05:25:06.327Z,16.90
2017-09-06T05:28:11.832Z,16.90
2017-09-06T05:31:16.750Z,16.80
2017-09-06T05:34:21.947Z,16.70
2017-09-06T05:37:27.067Z,16.70
2017-09-06T05:40:32.136Z,16.70
2017-09-06T05:43:37.645Z,16.70
2017-09-06T05:46:42.881Z,16.80
2017-09-06T05:49:48.197Z,16.90
2017-09-06T05:52:54.248Z,17.10
2017-09-06T05:55:59.692Z,17.30
2017-09-06T05:59:04.852Z,17.40
2017-09-06T06:02:09.731Z,17.60
2017-09-06T06:05:14.742Z,17.80
2017-09-06T06:08:23.597Z,18.00
2017-09-06T06:11:29.023Z,18.10
2017-09-06T06:14:34.068Z,18.20
2017-09-06T06:17:38.857Z,18.30
2017-09-06T06:20:43.737Z,18.20
2017-09-06T06:23:49.395Z,18.20
2017-09-06T06:26:54.624Z,18.30
2017-09-06T06:29:59.745Z,18.30
2017-09-06T06:33:04.516Z,18.40
2017-09-06T06:36:10.295Z,18.50
2017-09-06T06:39:15.435Z,18.50
2017-09-06T06:42:21.532Z,18.60
2017-09-06T06:45:26.482Z,18.80
2017-09-06T06:48:31.640Z,19.00
2017-09-06T06:51:36.921Z,19.20
2017-09-06T06:54:42.192Z,19.40
2017-09-06T06:57:48.158Z,19.40
2017-09-06T07:00:53.745Z,19.50
2017-09-06T07:03:58.876Z,19.50
2017-09-06T07:07:04.254Z,19.40
2017-09-06T07:10:09.241Z,19.30
2017-09-06T07:13:14.501Z,19.30
2017-09-06T07:16:19.448Z,19.20
2017-09-06T07:19:24.453Z,19.20
2017-09-06T07:22:29.308Z,19.30
2017-09-06T07:25:34.656Z,19.40
2017-09-06T07:28:40.327Z,19.50
2017-09-06T07:31:45.388Z,19.50
2017-09-06T07:34:50.452Z,19.40
2017-09-06T07:37:55.416Z,19.40
2017-09-06T07:41:00.608Z,19.40
2017-09-06T07:44:05.756Z,19.50
2017-09-06T07:47:10.909Z,19.60
2017-09-06T07:50:15.580Z,19.70
2017-09-06T07:53:21.187Z,19.80
2017-09-06T07:56:27.019Z,19.90
2017-09-06T07:59:32.084Z,19.90
2017-09-06T08:02:36.968Z,19.80
2017-09-06T08:05:41.986Z,20.00
2017-09-06T08:08:46.696Z,19.80
2017-09-06T08:11:52.328Z,19.40
2017-09-06T08:14:57.728Z,19.20
2017-09-06T08:18:04.461Z,19.10
2017-09-06T08:21:09.634Z,19.20
2017-09-06T08:24:14.785Z,19.40
2017-09-06T08:27:20.074Z,19.50
2017-09-06T08:30:25.103Z,19.60
2017-09-06T08:33:30.404Z,19.60
2017-09-06T08:36:36.067Z,19.80
2017-09-06T08:39:40.851Z,20.00
2017-09-06T08:42:46.372Z,20.00
2017-09-06T08:45:51.860Z,19.70
2017-09-06T08:48:57.028Z,19.60
2017-09-06T08:52:02.577Z,19.60
2017-09-06T08:55:08.181Z,19.70
2017-09-06T08:58:12.979Z,19.90
2017-09-06T09:01:18.624Z,20.10
2017-09-06T09:04:23.663Z,20.40
2017-09-06T09:07:31.380Z,20.50
2017-09-06T09:10:36.160Z,20.50
2017-09-06T09:13:40.961Z,20.40
2017-09-06T09:16:46.447Z,20.60
2017-09-06T09:19:51.868Z,21.00
2017-09-06T09:22:58.447Z,21.00
2017-09-06T09:26:03.925Z,20.80
2017-09-06T09:29:11.856Z,20.70
2017-09-06T09:32:17.044Z,20.90
2017-09-06T09:35:22.792Z,21.00
2017-09-06T09:38:28.552Z,20.90
2017-09-06T09:41:33.440Z,21.00
2017-09-06T09:44:38.929Z,20.90
2017-09-06T09:47:45.629Z,20.60
2017-09-06T09:50:50.716Z,20.70
2017-09-06T09:53:56.522Z,20.90
2017-09-06T09:57:01.272Z,21.10
2017-09-06T10:00:06.412Z,20.90
2017-09-06T10:03:12.115Z,20.70
2017-09-06T10:06:16.948Z,20.50
2017-09-06T10:09:23.597Z,20.40
2017-09-06T10:12:29.092Z,20.10
2017-09-06T10:15:34.579Z,20.00
2017-09-06T10:18:40.368Z,20.30
2017-09-06T10:21:45.479Z,20.70
2017-09-06T10:24:50.272Z,20.70
2017-09-06T10:27:55.931Z,20.70
2017-09-06T10:31:00.966Z,20.70
2017-09-06T10:34:06.312Z,20.80
2017-09-06T10:37:11.604Z,20.90
2017-09-06T10:40:16.523Z,21.00
2017-09-06T10:43:22.199Z,21.30
2017-09-06T10:46:27.120Z,21.50
2017-09-06T10:49:32.920Z,21.90
2017-09-06T10:52:37.773Z,21.70
2017-09-06T10:55:43.531Z,21.50
2017-09-06T10:58:48.664Z,21.20
2017-09-06T11:01:53.535Z,20.90
2017-09-06T11:04:59.143Z,20.90
2017-09-06T11:08:04.157Z,21.10
2017-09-06T11:11:08.877Z,21.30
2017-09-06T11:14:13.564Z,21.60
2017-09-06T11:17:18.811Z,21.70
2017-09-06T11:20:24.013Z,21.80
2017-09-06T11:23:28.692Z,22.00
2017-09-06T11:26:33.676Z,22.20
2017-09-06T11:29:38.763Z,22.10
2017-09-06T11:32:44.391Z,22.00
2017-09-06T11:35:49.761Z,21.80
2017-09-06T11:38:55.391Z,21.70
2017-09-06T11:42:00.797Z,21.60
2017-09-06T11:45:06.336Z,21.50
2017-09-06T11:48:11.336Z,21.40
2017-09-06T11:51:21.719Z,21.30
2017-09-06T11:54:32.994Z,21.50
2017-09-06T11:57:39.869Z,21.50
2017-09-06T12:00:45.337Z,21.40
2017-09-06T12:03:50.900Z,21.40
2017-09-06T12:06:55.989Z,21.30
2017-09-06T12:10:02.101Z,21.20
2017-09-06T12:13:06.723Z,21.30
2017-09-06T12:16:11.763Z,21.50
2017-09-06T12:19:17.169Z,21.60
2017-09-06T12:22:22.272Z,21.90
2017-09-06T12:25:27.415Z,22.30
2017-09-06T12:28:32.854Z,22.40
2017-09-06T12:31:38.172Z,22.40
2017-09-06T12:34:43.186Z,22.50
2017-09-06T12:37:48.178Z,22.30
2017-09-06T12:40:54.228Z,22.10
2017-09-06T12:43:59.648Z,21.90
2017-09-06T12:47:04.588Z,21.60
2017-09-06T12:50:10.880Z,21.50
2017-09-06T12:53:15.723Z,21.40
2017-09-06T12:56:21.278Z,21.40
2017-09-06T12:59:26.845Z,21.30
2017-09-06T13:02:33.562Z,21.30
2017-09-06T13:05:41.808Z,21.50
2017-09-06T13:08:47.040Z,21.40
2017-09-06T13:11:51.913Z,21.10
2017-09-06T13:14:56.612Z,21.30
2017-09-06T13:18:02.379Z,21.50
2017-09-06T13:21:08.200Z,21.60
2017-09-06T13:24:13.619Z,21.70
2017-09-06T13:27:18.649Z,21.70
2017-09-06T13:30:24.183Z,21.90
2017-09-06T13:33:29.183Z,21.70
2017-09-06T13:36:34.661Z,21.70
2017-09-06T13:39:40.010Z,21.60
2017-09-06T13:42:45.064Z,21.70
2017-09-06T13:45:50.128Z,21.40
2017-09-06T13:48:55.171Z,21.00
2017-09-06T13:52:00.839Z,20.60
2017-09-06T13:55:06.612Z,20.40
2017-09-06T13:58:11.781Z,20.30
2017-09-06T14:01:16.813Z,20.20
2017-09-06T14:04:22.028Z,20.10
2017-09-06T14:07:27.284Z,20.20
2017-09-06T14:10:32.680Z,20.00
2017-09-06T14:13:38.384Z,19.90
2017-09-06T14:16:46.098Z,19.90
2017-09-06T14:19:51.831Z,19.90
2017-09-06T14:22:57.269Z,19.80
2017-09-06T14:26:02.908Z,19.90
2017-09-06T14:29:09.525Z,20.00
2017-09-06T14:32:15.388Z,20.10
2017-09-06T14:35:21.644Z,20.00
2017-09-06T14:38:26.789Z,19.70
2017-09-06T14:41:31.872Z,19.60
2017-09-06T14:44:37.527Z,19.30
2017-09-06T14:47:43.022Z,19.20
2017-09-06T14:50:48.019Z,19.30
2017-09-06T14:53:53.099Z,19.50
2017-09-06T14:56:58.404Z,19.70
2017-09-06T15:00:07.907Z,19.80
2017-09-06T15:03:14.748Z,19.90
2017-09-06T15:06:19.788Z,19.80
2017-09-06T15:09:25.000Z,19.60
2017-09-06T15:12:30.641Z,19.40
2017-09-06T15:15:35.899Z,19.10
2017-09-06T15:18:40.890Z,19.00
2017-09-06T15:21:46.136Z,19.00
2017-09-06T15:24:51.868Z,19.10
2017-09-06T15:27:56.800Z,19.20
2017-09-06T15:31:02.186Z,19.20
2017-09-06T15:34:07.094Z,19.20
2017-09-06T15:37:12.481Z,19.10
2017-09-06T15:40:18.843Z,19.20
2017-09-06T15:43:24.371Z,19.30
2017-09-06T15:46:29.529Z,19.20
2017-09-06T15:49:34.374Z,19.10
2017-09-06T15:52:39.350Z,19.10
2017-09-06T15:55:44.370Z,19.20
2017-09-06T15:58:49.107Z,19.10
2017-09-06T16:01:54.624Z,19.10
2017-09-06T16:04:59.832Z,19.20
2017-09-06T16:08:04.668Z,19.20
2017-09-06T16:11:10.239Z,19.10
2017-09-06T16:14:15.259Z,19.10
2017-09-06T16:17:20.320Z,19.10
2017-09-06T16:20:25.772Z,19.00
2017-09-06T16:23:31.815Z,18.90
2017-09-06T16:26:36.916Z,18.90
2017-09-06T16:29:42.527Z,18.80
2017-09-06T16:32:48.077Z,18.80
2017-09-06T16:35:53.384Z,18.80
2017-09-06T16:38:58.429Z,18.70
2017-09-06T16:42:04.038Z,18.60
2017-09-06T16:45:09.184Z,18.60
2017-09-06T16:48:14.426Z,18.60
2017-09-06T16:51:19.666Z,18.60
2017-09-06T16:54:24.451Z,18.50
2017-09-06T16:57:29.885Z,18.50
2017-09-06T17:00:35.405Z,18.40
2017-09-06T17:03:48.681Z,18.40
2017-09-06T17:06:54.408Z,18.30
2017-09-06T17:10:04.564Z,18.30
2017-09-06T17:13:09.559Z,18.30
2017-09-06T17:16:16.567Z,18.20
2017-09-06T17:19:21.591Z,18.20
2017-09-06T17:22:26.480Z,18.10
2017-09-06T17:25:31.235Z,18.10
2017-09-06T17:28:36.469Z,18.00
2017-09-06T17:31:42.192Z,18.00
2017-09-06T17:34:47.075Z,18.00
2017-09-06T17:37:52.072Z,17.90
2017-09-06T17:40:56.828Z,17.90
2017-09-06T17:44:01.745Z,17.90
2017-09-06T17:47:07.419Z,17.80
2017-09-06T17:50:12.355Z,17.80
2017-09-06T17:53:17.116Z,17.70
2017-09-06T17:56:22.673Z,17.70
2017-09-06T17:59:27.871Z,17.70
2017-09-06T18:02:33.609Z,17.70
2017-09-06T18:05:38.795Z,17.70
2017-09-06T18:08:44.534Z,17.60
2017-09-06T18:11:49.493Z,17.60
2017-09-06T18:14:54.706Z,17.50
2017-09-06T18:18:00.115Z,17.50
2017-09-06T18:21:05.687Z,17.50
2017-09-06T18:24:11.131Z,17.50
2017-09-06T18:27:16.672Z,17.50
2017-09-06T18:30:21.894Z,17.50
2017-09-06T18:33:27.463Z,17.40
2017-09-06T18:36:32.748Z,17.40
2017-09-06T18:39:38.365Z,17.30
2017-09-06T18:42:43.305Z,17.20
2017-09-06T18:45:48.171Z,16.90
2017-09-06T18:48:53.567Z,16.60
2017-09-06T18:52:00.913Z,16.50
2017-09-06T18:55:06.384Z,16.40
2017-09-06T18:58:11.460Z,16.40
2017-09-06T19:01:16.580Z,16.40
2017-09-06T19:04:21.552Z,16.40
2017-09-06T19:07:27.084Z,16.40
2017-09-06T19:10:32.123Z,16.40
2017-09-06T19:13:37.283Z,16.40
2017-09-06T19:16:42.881Z,16.40
2017-09-06T19:19:48.147Z,16.50
2017-09-06T19:22:53.765Z,16.40
2017-09-06T19:25:59.032Z,16.40
2017-09-06T19:29:04.032Z,16.40
2017-09-06T19:32:09.547Z,16.40
2017-09-06T19:35:15.093Z,16.40
2017-09-06T19:38:20.008Z,16.40
2017-09-06T19:41:25.824Z,16.40
2017-09-06T19:44:30.833Z,16.40
2017-09-06T19:47:35.663Z,16.40
2017-09-06T19:50:41.091Z,16.40
2017-09-06T19:53:46.793Z,16.40
2017-09-06T19:56:51.869Z,16.40
2017-09-06T19:59:57.095Z,16.30
2017-09-06T20:03:02.776Z,16.30
2017-09-06T20:06:08.126Z,16.30
2017-09-06T20:09:13.156Z,16.30
2017-09-06T20:12:18.306Z,16.30
2017-09-06T20:15:23.809Z,16.20
2017-09-06T20:18:29.524Z,16.20
2017-09-06T20:21:34.863Z,16.20
2017-09-06T20:24:42.020Z,16.10
2017-09-06T20:27:47.359Z,16.10
2017-09-06T20:30:52.225Z,16.10
2017-09-06T20:33:57.462Z,16.00
2017-09-06T20:37:02.718Z,15.90
2017-09-06T20:40:07.412Z,15.90
2017-09-06T20:43:16.084Z,15.90
2017-09-06T20:46:20.959Z,15.80
2017-09-06T20:49:26.019Z,15.80
2017-09-06T20:52:31.328Z,15.80
2017-09-06T20:55:36.820Z,15.80
2017-09-06T20:58:42.019Z,15.80
2017-09-06T21:01:47.745Z,15.80
2017-09-06T21:04:52.764Z,15.80
2017-09-06T21:07:57.771Z,15.80
2017-09-06T21:11:03.336Z,15.80
2017-09-06T21:14:08.300Z,15.80
2017-09-06T21:17:13.675Z,15.70
2017-09-06T21:20:19.032Z,15.70
2017-09-06T21:23:24.040Z,15.60
2017-09-06T21:26:28.987Z,15.60
2017-09-06T21:29:34.348Z,15.60
2017-09-06T21:32:39.851Z,15.60
2017-09-06T21:35:44.896Z,15.60
2017-09-06T21:38:50.253Z,15.50
2017-09-06T21:41:55.577Z,15.50
2017-09-06T21:45:00.882Z,15.40
2017-09-06T21:48:05.684Z,15.40
2017-09-06T21:51:11.429Z,15.30
2017-09-06T21:54:16.764Z,15.30
2017-09-06T21:57:21.891Z,15.20
2017-09-06T22:00:27.703Z,15.30
2017-09-06T22:03:32.631Z,15.20
2017-09-06T22:06:37.829Z,15.20
2017-09-06T22:09:43.356Z,15.20
2017-09-06T22:12:48.347Z,15.10
2017-09-06T22:15:53.064Z,15.10
2017-09-06T22:18:58.428Z,15.10
2017-09-06T22:22:03.871Z,15.10
2017-09-06T22:25:08.756Z,15.00
2017-09-06T22:28:14.451Z,14.90
2017-09-06T22:31:19.926Z,14.90
2017-09-06T22:34:25.236Z,14.90
2017-09-06T22:37:30.797Z,14.80
2017-09-06T22:40:35.884Z,14.70
2017-09-06T22:43:41.495Z,14.70
2017-09-06T22:46:47.202Z,14.70
2017-09-06T22:49:52.066Z,14.70
2017-09-06T22:52:57.541Z,14.70
2017-09-06T22:56:03.157Z,14.80
2017-09-06T22:59:08.795Z,14.80
2017-09-06T23:02:13.751Z,14.70
2017-09-06T23:05:18.960Z,14.60
2017-09-06T23:08:23.964Z,14.70
2017-09-06T23:11:29.298Z,14.70
2017-09-06T23:14:34.663Z,14.70
2017-09-06T23:17:40.299Z,14.70
2017-09-06T23:20:45.524Z,14.60
2017-09-06T23:23:50.355Z,14.70
2017-09-06T23:26:55.305Z,14.60
2017-09-06T23:30:00.305Z,14.70
2017-09-06T23:33:05.521Z,14.60
2017-09-06T23:36:11.076Z,14.70
2017-09-06T23:39:15.928Z,14.70
2017-09-06T23:42:20.767Z,14.70
2017-09-06T23:45:25.716Z,14.70
2017-09-06T23:48:31.037Z,14.60
2017-09-06T23:51:36.860Z,14.70
2017-09-06T23:54:42.397Z,14.60
2017-09-06T23:57:47.223Z,14.60
